N850SB LEPA-LEGE
Flight info
| Callsign | N850SB |
|---|---|
| Flight time | 1h 2m |
| Altitude | 18000 |
| Route | ESPOR L2 VNV N861 LATRO L110 MAMUK |
| Aircraft | TBM8/L-SDFGRWY/S |
Departure
| Time | 2026-05-08 19:49 |
|---|---|
| Airport | Palma de Mallorca Airport (LEPA) |
Arrival
| Time | 2026-05-08 20:51 |
|---|---|
| Airport | Girona-Costa Brava Airport (LEGE) |
| Time | Latitude | Longitude | Altitude | Speed | Heading |
|---|---|---|---|---|---|
| 2026-05-08 19:34 | 39.54157 | 2.72350 | 31 ft | 0 kts | 328° |
| 2026-05-08 19:45 | 39.54167 | 2.72349 | 11 ft | 3 kts | 19° |
| 2026-05-08 19:45 | 39.54146 | 2.72432 | 31 ft | 18 kts | 132° |
| 2026-05-08 19:46 | 39.54109 | 2.72465 | 31 ft | 1 kts | 150° |
| 2026-05-08 19:46 | 39.54104 | 2.72468 | 31 ft | 4 kts | 152° |
| 2026-05-08 19:46 | 39.54110 | 2.72615 | 31 ft | 13 kts | 61° |
| 2026-05-08 19:47 | 39.54157 | 2.72718 | 31 ft | 16 kts | 58° |
| 2026-05-08 19:47 | 39.54215 | 2.72848 | 31 ft | 16 kts | 83° |
| 2026-05-08 19:47 | 39.54170 | 2.72897 | 31 ft | 12 kts | 162° |
| 2026-05-08 19:47 | 39.54122 | 2.72963 | 31 ft | 9 kts | 109° |
| 2026-05-08 19:48 | 39.54111 | 2.73108 | 31 ft | 19 kts | 91° |
| 2026-05-08 19:48 | 39.54133 | 2.73193 | 31 ft | 3 kts | 60° |
| 2026-05-08 19:48 | 39.54134 | 2.73197 | 31 ft | 0 kts | 58° |
| 2026-05-08 19:48 | 39.54175 | 2.73282 | 30 ft | 35 kts | 57° |
| 2026-05-08 19:49 | 39.54411 | 2.73774 | 30 ft | 90 kts | 58° |
| 2026-05-08 19:49 | 39.54777 | 2.74507 | 316 ft | 102 kts | 64° |
| 2026-05-08 19:49 | 39.55135 | 2.75343 | 750 ft | 107 kts | 52° |
| 2026-05-08 19:49 | 39.55583 | 2.76140 | 1200 ft | 110 kts | 57° |
| 2026-05-08 19:50 | 39.56026 | 2.76955 | 1643 ft | 114 kts | 56° |
| 2026-05-08 19:50 | 39.56507 | 2.77884 | 1894 ft | 133 kts | 59° |
| 2026-05-08 19:50 | 39.57017 | 2.78869 | 2410 ft | 131 kts | 57° |
| 2026-05-08 19:50 | 39.57526 | 2.79853 | 2878 ft | 132 kts | 57° |
| 2026-05-08 19:51 | 39.58040 | 2.80854 | 3347 ft | 134 kts | 57° |
| 2026-05-08 19:51 | 39.58563 | 2.81870 | 3783 ft | 137 kts | 57° |
| 2026-05-08 19:51 | 39.59095 | 2.82906 | 4232 ft | 139 kts | 57° |
| 2026-05-08 19:51 | 39.59636 | 2.83949 | 4678 ft | 142 kts | 57° |
| 2026-05-08 19:52 | 39.60192 | 2.85029 | 5093 ft | 146 kts | 57° |
| 2026-05-08 19:52 | 39.60760 | 2.86146 | 5495 ft | 150 kts | 57° |
| 2026-05-08 19:52 | 39.61337 | 2.87293 | 5915 ft | 153 kts | 57° |
| 2026-05-08 19:52 | 39.61922 | 2.88471 | 6330 ft | 157 kts | 57° |
| 2026-05-08 19:53 | 39.62516 | 2.89679 | 6717 ft | 160 kts | 57° |
| 2026-05-08 19:53 | 39.63117 | 2.90903 | 7123 ft | 162 kts | 57° |
| 2026-05-08 19:53 | 39.63911 | 2.91910 | 7544 ft | 161 kts | 22° |
| 2026-05-08 19:53 | 39.64976 | 2.92058 | 7952 ft | 155 kts | 339° |
| 2026-05-08 19:54 | 39.65822 | 2.91311 | 8364 ft | 145 kts | 297° |
| 2026-05-08 19:54 | 39.66102 | 2.90097 | 8773 ft | 141 kts | 274° |
| 2026-05-08 19:54 | 39.66294 | 2.88840 | 9207 ft | 142 kts | 277° |
| 2026-05-08 19:54 | 39.66502 | 2.87570 | 9653 ft | 142 kts | 277° |
| 2026-05-08 19:55 | 39.66705 | 2.86331 | 10074 ft | 142 kts | 277° |
| 2026-05-08 19:55 | 39.66911 | 2.85075 | 10466 ft | 142 kts | 277° |
| 2026-05-08 19:55 | 39.67117 | 2.83822 | 10859 ft | 142 kts | 277° |
| 2026-05-08 19:55 | 39.67323 | 2.82569 | 11253 ft | 142 kts | 277° |
| 2026-05-08 19:56 | 39.67716 | 2.81393 | 11626 ft | 150 kts | 304° |
| 2026-05-08 19:56 | 39.68541 | 2.80519 | 12041 ft | 153 kts | 313° |
| 2026-05-08 19:56 | 39.69351 | 2.79626 | 12428 ft | 152 kts | 309° |
| 2026-05-08 19:56 | 39.70141 | 2.78711 | 12832 ft | 152 kts | 309° |
| 2026-05-08 19:57 | 39.70929 | 2.77791 | 13217 ft | 153 kts | 308° |
| 2026-05-08 19:57 | 39.71719 | 2.76863 | 13600 ft | 153 kts | 308° |
| 2026-05-08 19:57 | 39.72509 | 2.75937 | 13968 ft | 153 kts | 308° |
| 2026-05-08 19:57 | 39.73298 | 2.75007 | 14325 ft | 153 kts | 308° |
| 2026-05-08 19:58 | 39.74090 | 2.74076 | 14674 ft | 154 kts | 307° |
| 2026-05-08 19:58 | 39.74882 | 2.73143 | 15021 ft | 154 kts | 307° |
| 2026-05-08 19:58 | 39.75681 | 2.72202 | 15385 ft | 155 kts | 307° |
| 2026-05-08 19:58 | 39.76479 | 2.71262 | 15742 ft | 155 kts | 307° |
| 2026-05-08 19:59 | 39.77280 | 2.70319 | 16089 ft | 156 kts | 307° |
| 2026-05-08 19:59 | 39.78084 | 2.69372 | 16427 ft | 156 kts | 306° |
| 2026-05-08 19:59 | 39.78889 | 2.68424 | 16760 ft | 156 kts | 306° |
| 2026-05-08 19:59 | 39.79686 | 2.67481 | 17098 ft | 157 kts | 306° |
| 2026-05-08 20:00 | 39.80497 | 2.66525 | 17443 ft | 158 kts | 306° |
| 2026-05-08 20:00 | 39.81313 | 2.65563 | 17793 ft | 158 kts | 306° |
| 2026-05-08 20:00 | 39.82136 | 2.64584 | 18009 ft | 167 kts | 306° |
| 2026-05-08 20:00 | 39.83045 | 2.63506 | 18025 ft | 186 kts | 307° |
| 2026-05-08 20:01 | 39.84051 | 2.62324 | 18025 ft | 202 kts | 308° |
| 2026-05-08 20:01 | 39.85129 | 2.61051 | 18023 ft | 216 kts | 309° |
| 2026-05-08 20:01 | 39.86268 | 2.59705 | 18027 ft | 226 kts | 309° |
| 2026-05-08 20:01 | 39.87454 | 2.58294 | 18024 ft | 236 kts | 309° |
| 2026-05-08 20:02 | 39.88697 | 2.56818 | 18021 ft | 246 kts | 310° |
| 2026-05-08 20:02 | 39.89990 | 2.55296 | 18014 ft | 254 kts | 310° |
| 2026-05-08 20:02 | 39.91311 | 2.53734 | 18018 ft | 259 kts | 310° |
| 2026-05-08 20:02 | 39.92656 | 2.52140 | 18016 ft | 264 kts | 310° |
| 2026-05-08 20:03 | 39.94004 | 2.50542 | 18018 ft | 267 kts | 310° |
| 2026-05-08 20:03 | 39.95386 | 2.48903 | 18017 ft | 270 kts | 310° |
| 2026-05-08 20:03 | 39.96779 | 2.47250 | 18015 ft | 272 kts | 310° |
| 2026-05-08 20:03 | 39.98179 | 2.45586 | 18013 ft | 273 kts | 310° |
| 2026-05-08 20:04 | 39.99588 | 2.43910 | 18016 ft | 275 kts | 310° |
| 2026-05-08 20:04 | 40.01006 | 2.42224 | 18016 ft | 276 kts | 310° |
| 2026-05-08 20:04 | 40.02427 | 2.40533 | 18012 ft | 277 kts | 310° |
| 2026-05-08 20:04 | 40.03851 | 2.38838 | 18015 ft | 277 kts | 310° |
| 2026-05-08 20:05 | 40.05277 | 2.37137 | 18015 ft | 278 kts | 310° |
| 2026-05-08 20:05 | 40.06710 | 2.35429 | 18017 ft | 278 kts | 310° |
| 2026-05-08 20:05 | 40.08142 | 2.33720 | 18016 ft | 279 kts | 310° |
| 2026-05-08 20:05 | 40.09570 | 2.32014 | 18015 ft | 279 kts | 310° |
| 2026-05-08 20:06 | 40.11003 | 2.30303 | 18016 ft | 279 kts | 310° |
| 2026-05-08 20:06 | 40.12433 | 2.28593 | 18018 ft | 279 kts | 310° |
| 2026-05-08 20:06 | 40.13846 | 2.26900 | 18015 ft | 279 kts | 310° |
| 2026-05-08 20:06 | 40.15279 | 2.25187 | 18016 ft | 279 kts | 310° |
| 2026-05-08 20:07 | 40.16713 | 2.23468 | 18019 ft | 279 kts | 310° |
| 2026-05-08 20:07 | 40.18145 | 2.21753 | 18020 ft | 279 kts | 310° |
| 2026-05-08 20:07 | 40.19578 | 2.20034 | 18017 ft | 279 kts | 310° |
| 2026-05-08 20:07 | 40.21010 | 2.18315 | 18018 ft | 279 kts | 310° |
| 2026-05-08 20:08 | 40.22440 | 2.16598 | 18015 ft | 279 kts | 310° |
| 2026-05-08 20:08 | 40.23387 | 2.15461 | 18020 ft | 279 kts | 310° |
| 2026-05-08 20:08 | 40.24819 | 2.13739 | 18018 ft | 279 kts | 310° |
| 2026-05-08 20:08 | 40.26253 | 2.12016 | 18021 ft | 279 kts | 310° |
| 2026-05-08 20:09 | 40.27689 | 2.10302 | 18015 ft | 280 kts | 312° |
| 2026-05-08 20:09 | 40.29387 | 2.08966 | 18005 ft | 293 kts | 330° |
| 2026-05-08 20:09 | 40.31357 | 2.08174 | 18006 ft | 298 kts | 338° |
| 2026-05-08 20:09 | 40.33365 | 2.07486 | 18008 ft | 297 kts | 336° |
| 2026-05-08 20:10 | 40.35304 | 2.06686 | 18013 ft | 295 kts | 333° |
| 2026-05-08 20:10 | 40.37247 | 2.05830 | 18014 ft | 295 kts | 334° |
| 2026-05-08 20:10 | 40.39208 | 2.05015 | 18019 ft | 295 kts | 335° |
| 2026-05-08 20:10 | 40.41170 | 2.04215 | 18018 ft | 295 kts | 335° |
| 2026-05-08 20:11 | 40.43128 | 2.03400 | 18023 ft | 295 kts | 334° |
| 2026-05-08 20:11 | 40.45085 | 2.02584 | 18021 ft | 295 kts | 334° |
| 2026-05-08 20:11 | 40.47039 | 2.01770 | 18021 ft | 295 kts | 334° |
| 2026-05-08 20:11 | 40.48997 | 2.00954 | 18021 ft | 295 kts | 334° |
| 2026-05-08 20:12 | 40.50952 | 2.00140 | 18024 ft | 295 kts | 334° |
| 2026-05-08 20:12 | 40.52909 | 1.99323 | 18023 ft | 295 kts | 334° |
| 2026-05-08 20:12 | 40.54869 | 1.98505 | 18023 ft | 295 kts | 334° |
| 2026-05-08 20:12 | 40.56832 | 1.97686 | 18025 ft | 295 kts | 334° |
| 2026-05-08 20:13 | 40.58790 | 1.96868 | 18026 ft | 295 kts | 334° |
| 2026-05-08 20:13 | 40.60750 | 1.96048 | 18018 ft | 295 kts | 334° |
| 2026-05-08 20:13 | 40.62684 | 1.95239 | 18029 ft | 296 kts | 334° |
| 2026-05-08 20:13 | 40.64645 | 1.94418 | 18023 ft | 296 kts | 334° |
| 2026-05-08 20:14 | 40.66605 | 1.93597 | 18030 ft | 296 kts | 334° |
| 2026-05-08 20:14 | 40.68577 | 1.92771 | 18016 ft | 296 kts | 334° |
| 2026-05-08 20:14 | 40.70541 | 1.91946 | 18030 ft | 296 kts | 334° |
| 2026-05-08 20:14 | 40.72503 | 1.91124 | 18025 ft | 296 kts | 334° |
| 2026-05-08 20:15 | 40.74466 | 1.90300 | 18030 ft | 296 kts | 334° |
| 2026-05-08 20:15 | 40.76428 | 1.89475 | 18031 ft | 296 kts | 334° |
| 2026-05-08 20:15 | 40.78390 | 1.88651 | 18025 ft | 296 kts | 334° |
| 2026-05-08 20:15 | 40.80324 | 1.87837 | 18026 ft | 296 kts | 334° |
| 2026-05-08 20:16 | 40.82283 | 1.87012 | 18033 ft | 296 kts | 334° |
| 2026-05-08 20:16 | 40.84245 | 1.86186 | 18037 ft | 296 kts | 334° |
| 2026-05-08 20:16 | 40.86214 | 1.85356 | 18028 ft | 296 kts | 334° |
| 2026-05-08 20:16 | 40.88177 | 1.84528 | 18037 ft | 296 kts | 334° |
| 2026-05-08 20:17 | 40.90144 | 1.83698 | 18034 ft | 296 kts | 334° |
| 2026-05-08 20:17 | 40.92106 | 1.82869 | 18036 ft | 296 kts | 334° |
| 2026-05-08 20:17 | 40.94068 | 1.82041 | 18031 ft | 296 kts | 334° |
| 2026-05-08 20:17 | 40.96027 | 1.81212 | 18032 ft | 296 kts | 334° |
| 2026-05-08 20:18 | 40.97986 | 1.80384 | 18033 ft | 296 kts | 334° |
| 2026-05-08 20:18 | 40.99921 | 1.79565 | 18036 ft | 295 kts | 334° |
| 2026-05-08 20:18 | 41.01879 | 1.78736 | 18033 ft | 295 kts | 334° |
| 2026-05-08 20:18 | 41.03842 | 1.77903 | 18035 ft | 295 kts | 334° |
| 2026-05-08 20:19 | 41.05806 | 1.77071 | 18041 ft | 295 kts | 334° |
| 2026-05-08 20:19 | 41.07766 | 1.76239 | 18039 ft | 295 kts | 334° |
| 2026-05-08 20:19 | 41.09704 | 1.75416 | 18039 ft | 295 kts | 334° |
| 2026-05-08 20:19 | 41.11667 | 1.74582 | 18044 ft | 295 kts | 334° |
| 2026-05-08 20:20 | 41.13617 | 1.73757 | 18046 ft | 293 kts | 334° |
| 2026-05-08 20:20 | 41.15560 | 1.72923 | 18047 ft | 294 kts | 334° |
| 2026-05-08 20:20 | 41.17513 | 1.72091 | 18049 ft | 295 kts | 334° |
| 2026-05-08 20:20 | 41.19467 | 1.71261 | 18044 ft | 295 kts | 334° |
| 2026-05-08 20:21 | 41.21442 | 1.70496 | 18047 ft | 299 kts | 341° |
| 2026-05-08 20:21 | 41.23528 | 1.70130 | 18045 ft | 304 kts | 347° |
| 2026-05-08 20:21 | 41.25609 | 1.69888 | 18049 ft | 304 kts | 347° |
| 2026-05-08 20:21 | 41.27225 | 1.69660 | 18047 ft | 303 kts | 345° |
| 2026-05-08 20:22 | 41.29322 | 1.69310 | 18046 ft | 303 kts | 345° |
| 2026-05-08 20:22 | 41.31417 | 1.68970 | 18047 ft | 303 kts | 345° |
| 2026-05-08 20:22 | 41.33516 | 1.68654 | 18048 ft | 303 kts | 346° |
| 2026-05-08 20:22 | 41.35615 | 1.68334 | 18048 ft | 303 kts | 345° |
| 2026-05-08 20:23 | 41.37711 | 1.68007 | 18051 ft | 303 kts | 345° |
| 2026-05-08 20:23 | 41.39804 | 1.67680 | 18051 ft | 303 kts | 345° |
| 2026-05-08 20:23 | 41.41897 | 1.67356 | 18053 ft | 302 kts | 345° |
| 2026-05-08 20:23 | 41.43988 | 1.67033 | 18055 ft | 302 kts | 346° |
| 2026-05-08 20:24 | 41.46080 | 1.66707 | 18053 ft | 302 kts | 345° |
| 2026-05-08 20:24 | 41.48168 | 1.66380 | 18052 ft | 302 kts | 345° |
| 2026-05-08 20:24 | 41.50222 | 1.66060 | 18054 ft | 302 kts | 345° |
| 2026-05-08 20:24 | 41.52311 | 1.65733 | 18051 ft | 301 kts | 345° |
| 2026-05-08 20:25 | 41.54396 | 1.65406 | 18053 ft | 301 kts | 345° |
| 2026-05-08 20:25 | 41.56480 | 1.65080 | 18057 ft | 301 kts | 345° |
| 2026-05-08 20:25 | 41.58561 | 1.64753 | 18057 ft | 301 kts | 345° |
| 2026-05-08 20:25 | 41.60639 | 1.64427 | 18057 ft | 301 kts | 345° |
| 2026-05-08 20:26 | 41.62732 | 1.64097 | 18055 ft | 301 kts | 345° |
| 2026-05-08 20:26 | 41.64811 | 1.63770 | 18060 ft | 301 kts | 346° |
| 2026-05-08 20:26 | 41.66895 | 1.63443 | 18051 ft | 301 kts | 346° |
| 2026-05-08 20:26 | 41.68946 | 1.63122 | 18053 ft | 300 kts | 346° |
| 2026-05-08 20:27 | 41.71026 | 1.62792 | 18054 ft | 300 kts | 346° |
| 2026-05-08 20:27 | 41.73123 | 1.62647 | 18048 ft | 307 kts | 358° |
| 2026-05-08 20:27 | 41.75222 | 1.63384 | 18039 ft | 318 kts | 18° |
| 2026-05-08 20:27 | 41.77094 | 1.65026 | 18039 ft | 326 kts | 38° |
| 2026-05-08 20:28 | 41.78523 | 1.67400 | 18043 ft | 331 kts | 58° |
| 2026-05-08 20:28 | 41.79356 | 1.70267 | 18042 ft | 331 kts | 78° |
| 2026-05-08 20:28 | 41.79539 | 1.73330 | 18044 ft | 329 kts | 93° |
| 2026-05-08 20:28 | 41.79461 | 1.76397 | 18045 ft | 329 kts | 93° |
| 2026-05-08 20:29 | 41.79574 | 1.79462 | 18052 ft | 330 kts | 83° |
| 2026-05-08 20:29 | 41.80041 | 1.82444 | 18056 ft | 331 kts | 76° |
| 2026-05-08 20:29 | 41.80615 | 1.85433 | 18054 ft | 330 kts | 77° |
| 2026-05-08 20:29 | 41.81062 | 1.88455 | 18048 ft | 330 kts | 81° |
| 2026-05-08 20:30 | 41.81435 | 1.91496 | 18050 ft | 330 kts | 81° |
| 2026-05-08 20:30 | 41.81860 | 1.94521 | 18053 ft | 330 kts | 79° |
| 2026-05-08 20:30 | 41.82315 | 1.97543 | 18049 ft | 330 kts | 79° |
| 2026-05-08 20:30 | 41.82748 | 2.00565 | 18052 ft | 330 kts | 80° |
| 2026-05-08 20:31 | 41.83166 | 2.03591 | 18049 ft | 330 kts | 79° |
| 2026-05-08 20:31 | 41.83593 | 2.06616 | 18052 ft | 330 kts | 79° |
| 2026-05-08 20:31 | 41.84017 | 2.09648 | 18049 ft | 330 kts | 80° |
| 2026-05-08 20:31 | 41.84390 | 2.12654 | 18048 ft | 330 kts | 81° |
| 2026-05-08 20:32 | 41.84766 | 2.15693 | 18047 ft | 330 kts | 81° |
| 2026-05-08 20:32 | 41.85155 | 2.18717 | 18042 ft | 329 kts | 81° |
| 2026-05-08 20:32 | 41.85550 | 2.21748 | 18045 ft | 329 kts | 81° |
| 2026-05-08 20:32 | 41.85939 | 2.24784 | 18041 ft | 329 kts | 81° |
| 2026-05-08 20:33 | 41.86320 | 2.27789 | 18043 ft | 330 kts | 81° |
| 2026-05-08 20:33 | 41.86708 | 2.30848 | 18045 ft | 331 kts | 81° |
| 2026-05-08 20:33 | 41.87093 | 2.33911 | 18040 ft | 332 kts | 81° |
| 2026-05-08 20:33 | 41.87476 | 2.36929 | 18041 ft | 332 kts | 80° |
| 2026-05-08 20:34 | 41.87865 | 2.39997 | 18039 ft | 332 kts | 81° |
| 2026-05-08 20:34 | 41.88235 | 2.42946 | 18040 ft | 331 kts | 81° |
| 2026-05-08 20:34 | 41.89008 | 2.49069 | 17998 ft | 331 kts | 78° |
| 2026-05-08 20:35 | 41.89489 | 2.52091 | 17660 ft | 335 kts | 79° |
| 2026-05-08 20:35 | 41.89888 | 2.55105 | 17288 ft | 322 kts | 81° |
| 2026-05-08 20:35 | 41.90295 | 2.58030 | 16927 ft | 313 kts | 79° |
| 2026-05-08 20:35 | 41.90740 | 2.60860 | 16560 ft | 305 kts | 78° |
| 2026-05-08 20:36 | 41.91154 | 2.63590 | 16197 ft | 299 kts | 79° |
| 2026-05-08 20:36 | 41.91546 | 2.66314 | 15854 ft | 294 kts | 79° |
| 2026-05-08 20:36 | 41.91940 | 2.68999 | 15504 ft | 289 kts | 79° |
| 2026-05-08 20:36 | 41.92330 | 2.71604 | 15161 ft | 285 kts | 79° |
| 2026-05-08 20:37 | 41.92723 | 2.74201 | 14820 ft | 281 kts | 79° |
| 2026-05-08 20:37 | 41.93279 | 2.76659 | 14480 ft | 277 kts | 60° |
| 2026-05-08 20:37 | 41.94607 | 2.78483 | 14138 ft | 271 kts | 29° |
| 2026-05-08 20:37 | 41.96283 | 2.79530 | 13815 ft | 266 kts | 19° |
| 2026-05-08 20:38 | 41.98038 | 2.80319 | 13441 ft | 263 kts | 18° |
| 2026-05-08 20:38 | 41.99722 | 2.81288 | 13073 ft | 262 kts | 24° |
| 2026-05-08 20:38 | 42.01343 | 2.82338 | 12738 ft | 260 kts | 24° |
| 2026-05-08 20:38 | 42.02982 | 2.83366 | 12409 ft | 257 kts | 24° |
| 2026-05-08 20:39 | 42.04587 | 2.84366 | 12036 ft | 255 kts | 24° |
| 2026-05-08 20:39 | 42.06091 | 2.85343 | 11601 ft | 223 kts | 25° |
| 2026-05-08 20:39 | 42.07441 | 2.86193 | 11119 ft | 206 kts | 24° |
| 2026-05-08 20:39 | 42.08682 | 2.86950 | 10646 ft | 189 kts | 24° |
| 2026-05-08 20:40 | 42.09824 | 2.87660 | 10151 ft | 173 kts | 24° |
| 2026-05-08 20:40 | 42.10879 | 2.88329 | 9629 ft | 160 kts | 25° |
| 2026-05-08 20:40 | 42.11863 | 2.88947 | 9094 ft | 153 kts | 24° |
| 2026-05-08 20:40 | 42.12835 | 2.89396 | 8557 ft | 148 kts | 359° |
| 2026-05-08 20:41 | 42.13697 | 2.88829 | 8030 ft | 137 kts | 301° |
| 2026-05-08 20:41 | 42.13783 | 2.87649 | 7514 ft | 127 kts | 242° |
| 2026-05-08 20:41 | 42.13289 | 2.86717 | 7065 ft | 113 kts | 233° |
| 2026-05-08 20:41 | 42.12868 | 2.85890 | 6594 ft | 102 kts | 231° |
| 2026-05-08 20:42 | 42.12311 | 2.85344 | 6099 ft | 99 kts | 215° |
| 2026-05-08 20:42 | 42.11756 | 2.84798 | 5597 ft | 98 kts | 214° |
| 2026-05-08 20:42 | 42.11197 | 2.84276 | 5093 ft | 97 kts | 207° |
| 2026-05-08 20:42 | 42.10540 | 2.83968 | 4663 ft | 102 kts | 201° |
| 2026-05-08 20:43 | 42.09903 | 2.83671 | 4493 ft | 90 kts | 197° |
| 2026-05-08 20:43 | 42.09325 | 2.83435 | 4489 ft | 84 kts | 195° |
| 2026-05-08 20:43 | 42.08778 | 2.83211 | 4483 ft | 81 kts | 196° |
| 2026-05-08 20:43 | 42.08221 | 2.83025 | 4432 ft | 88 kts | 192° |
| 2026-05-08 20:44 | 42.07582 | 2.82813 | 4230 ft | 96 kts | 195° |
| 2026-05-08 20:44 | 42.06942 | 2.82522 | 3900 ft | 99 kts | 206° |
| 2026-05-08 20:44 | 42.06310 | 2.82189 | 3576 ft | 98 kts | 200° |
| 2026-05-08 20:44 | 42.05677 | 2.81868 | 3267 ft | 94 kts | 208° |
| 2026-05-08 20:45 | 42.05098 | 2.81552 | 3123 ft | 86 kts | 200° |
| 2026-05-08 20:45 | 42.04731 | 2.81410 | 3056 ft | 80 kts | 197° |
| 2026-05-08 20:45 | 42.04008 | 2.81182 | 2947 ft | 81 kts | 194° |
| 2026-05-08 20:45 | 42.03442 | 2.81027 | 2861 ft | 85 kts | 194° |
| 2026-05-08 20:46 | 42.02880 | 2.80830 | 2792 ft | 85 kts | 198° |
| 2026-05-08 20:46 | 42.02317 | 2.80604 | 2740 ft | 83 kts | 195° |
| 2026-05-08 20:46 | 42.01740 | 2.80423 | 2634 ft | 87 kts | 194° |
| 2026-05-08 20:46 | 42.01150 | 2.80214 | 2487 ft | 87 kts | 197° |
| 2026-05-08 20:47 | 42.00577 | 2.79998 | 2383 ft | 84 kts | 195° |
| 2026-05-08 20:47 | 42.00010 | 2.79848 | 2272 ft | 86 kts | 192° |
| 2026-05-08 20:47 | 41.99430 | 2.79625 | 2118 ft | 88 kts | 201° |
| 2026-05-08 20:47 | 41.98865 | 2.79396 | 2007 ft | 84 kts | 193° |
| 2026-05-08 20:48 | 41.98309 | 2.79184 | 1955 ft | 80 kts | 196° |
| 2026-05-08 20:48 | 41.97770 | 2.78977 | 1853 ft | 84 kts | 195° |
| 2026-05-08 20:48 | 41.97205 | 2.78732 | 1704 ft | 86 kts | 200° |
| 2026-05-08 20:48 | 41.96627 | 2.78485 | 1543 ft | 88 kts | 197° |
| 2026-05-08 20:49 | 41.96048 | 2.78296 | 1485 ft | 84 kts | 190° |
| 2026-05-08 20:49 | 41.95457 | 2.78093 | 1303 ft | 89 kts | 198° |
| 2026-05-08 20:49 | 41.94884 | 2.77865 | 1190 ft | 85 kts | 197° |
| 2026-05-08 20:49 | 41.94310 | 2.77648 | 1111 ft | 84 kts | 198° |
| 2026-05-08 20:50 | 41.93741 | 2.77424 | 992 ft | 86 kts | 196° |
| 2026-05-08 20:50 | 41.93164 | 2.77190 | 859 ft | 87 kts | 197° |
| 2026-05-08 20:50 | 41.92781 | 2.77042 | 794 ft | 84 kts | 197° |
| 2026-05-08 20:50 | 41.92210 | 2.76860 | 668 ft | 84 kts | 195° |
| 2026-05-08 20:51 | 41.91468 | 2.76576 | 519 ft | 83 kts | 197° |
| 2026-05-08 20:51 | 41.91114 | 2.76447 | 469 ft | 73 kts | 198° |
| 2026-05-08 20:51 | 41.90738 | 2.76296 | 457 ft | 40 kts | 195° |
| 2026-05-08 20:51 | 41.90552 | 2.76228 | 451 ft | 16 kts | 196° |
| 2026-05-08 20:52 | 41.90507 | 2.76211 | 450 ft | 0 kts | 195° |
| 2026-05-08 20:52 | 41.90513 | 2.76213 | 450 ft | 3 kts | 194° |
| 2026-05-08 20:52 | 41.90523 | 2.76216 | 451 ft | 2 kts | 192° |
| 2026-05-08 20:52 | 41.90521 | 2.76215 | 451 ft | 7 kts | 195° |
| 2026-05-08 20:53 | 41.90357 | 2.76153 | 445 ft | 32 kts | 192° |
| 2026-05-08 20:53 | 41.90151 | 2.76079 | 427 ft | 19 kts | 185° |
| 2026-05-08 20:53 | 41.90068 | 2.76207 | 421 ft | 24 kts | 107° |
| 2026-05-08 20:53 | 41.90159 | 2.76313 | 416 ft | 19 kts | 12° |
| 2026-05-08 20:54 | 41.90273 | 2.76354 | 420 ft | 15 kts | 15° |
| 2026-05-08 20:54 | 41.90320 | 2.76444 | 416 ft | 14 kts | 98° |
| 2026-05-08 20:54 | 41.90289 | 2.76558 | 416 ft | 7 kts | 186° |
| 2026-05-08 20:54 | 41.90249 | 2.76537 | 415 ft | 0 kts | 197° |